createdAt,value
2023-02-13T00:00:32.420Z,90.72
2023-02-13T00:01:32.402Z,90.93
2023-02-13T00:02:32.426Z,91.03
2023-02-13T00:03:32.433Z,91.24
2023-02-13T00:04:32.401Z,91.35
2023-02-13T00:05:32.362Z,91.14
2023-02-13T00:06:32.353Z,91.14
2023-02-13T00:07:32.342Z,91.14
2023-02-13T00:08:32.332Z,91.03
2023-02-13T00:09:32.339Z,91.14
2023-02-13T00:10:32.315Z,91.14
2023-02-13T00:11:32.325Z,91.24
2023-02-13T00:12:32.284Z,91.45
2023-02-13T00:13:32.358Z,91.55
2023-02-13T00:14:32.265Z,91.97
2023-02-13T00:15:32.328Z,92.28
2023-02-13T00:16:32.245Z,92.49
2023-02-13T00:17:32.248Z,92.38
2023-02-13T00:18:32.229Z,92.28
2023-02-13T00:19:32.357Z,92.32
2023-02-13T00:20:32.205Z,92.32
2023-02-13T00:21:32.263Z,92.22
2023-02-13T00:22:32.176Z,92.11
2023-02-13T00:23:32.209Z,92.11
2023-02-13T00:24:32.178Z,92.11
2023-02-13T00:25:32.147Z,92.11
2023-02-13T00:26:32.156Z,92.11
2023-02-13T00:27:32.136Z,92.43
2023-02-13T00:28:32.148Z,92.74
2023-02-13T00:29:32.106Z,92.84
2023-02-13T00:30:32.118Z,92.84
2023-02-13T00:31:32.237Z,92.63
2023-02-13T00:32:32.092Z,92.32
2023-02-13T00:33:32.065Z,92.22
2023-02-13T00:34:32.053Z,92.11
2023-02-13T00:35:32.062Z,92.05
2023-02-13T00:36:32.024Z,91.80
2023-02-13T00:37:32.023Z,91.64
2023-02-13T00:38:32.002Z,91.53
2023-02-13T00:39:32.021Z,91.64
2023-02-13T00:40:31.980Z,91.74
2023-02-13T00:41:31.976Z,91.74
2023-02-13T00:42:31.960Z,91.74
2023-02-13T00:43:32.125Z,91.43
2023-02-13T00:44:31.980Z,91.33
2023-02-13T00:45:31.948Z,91.33
2023-02-13T00:46:31.966Z,91.33
2023-02-13T00:47:31.930Z,91.33
2023-02-13T00:48:31.909Z,91.12
2023-02-13T00:49:31.893Z,91.02
2023-02-13T00:50:31.878Z,90.91
2023-02-13T00:51:31.874Z,90.91
2023-02-13T00:52:31.862Z,91.02
2023-02-13T00:53:31.881Z,91.12
2023-02-13T00:54:31.846Z,91.22
2023-02-13T00:55:31.831Z,91.43
2023-02-13T00:56:31.810Z,91.47
2023-02-13T00:57:31.868Z,91.47
2023-02-13T00:58:31.861Z,91.37
2023-02-13T00:59:31.795Z,91.47
2023-02-13T01:00:31.771Z,91.47
2023-02-13T01:01:31.770Z,91.27
2023-02-13T01:02:31.769Z,91.37
2023-02-13T01:03:31.761Z,91.27
2023-02-13T01:04:31.736Z,91.37
2023-02-13T01:05:31.722Z,91.62
2023-02-13T01:06:31.725Z,91.68
2023-02-13T01:07:31.723Z,91.68
2023-02-13T01:08:31.683Z,91.58
2023-02-13T01:09:31.715Z,91.37
2023-02-13T01:10:31.684Z,91.37
2023-02-13T01:11:31.668Z,91.31
2023-02-13T01:12:31.647Z,91.20
2023-02-13T01:13:31.660Z,91.10
2023-02-13T01:14:31.643Z,91.10
2023-02-13T01:15:31.624Z,91.20
2023-02-13T01:16:31.616Z,91.41
2023-02-13T01:17:31.604Z,91.52
2023-02-13T01:18:31.599Z,91.62
2023-02-13T01:19:31.605Z,91.62
2023-02-13T01:20:31.566Z,91.52
2023-02-13T01:21:31.570Z,91.52
2023-02-13T01:22:31.547Z,91.83
2023-02-13T01:23:31.555Z,91.93
2023-02-13T01:24:31.537Z,91.52
2023-02-13T01:25:31.530Z,91.31
2023-02-13T01:26:31.506Z,91.20
2023-02-13T01:27:31.498Z,91.20
2023-02-13T01:28:31.540Z,91.10
2023-02-13T01:29:31.489Z,91.20
2023-02-13T01:30:31.465Z,91.52
2023-02-13T01:31:31.568Z,91.52
2023-02-13T01:32:31.440Z,91.56
2023-02-13T01:33:31.440Z,91.56
2023-02-13T01:34:31.438Z,91.66
2023-02-13T01:35:31.420Z,91.66
2023-02-13T01:36:31.409Z,91.56
2023-02-13T01:37:31.414Z,91.46
2023-02-13T01:38:31.377Z,91.35
2023-02-13T01:39:31.387Z,91.25
2023-02-13T01:40:31.378Z,91.14
2023-02-13T01:41:31.346Z,90.93
2023-02-13T01:42:31.355Z,91.35
2023-02-13T01:43:31.325Z,91.56
2023-02-13T01:44:31.324Z,92.29
2023-02-13T01:45:31.345Z,92.95
2023-02-13T01:46:31.373Z,93.05
2023-02-13T01:47:31.294Z,93.05
2023-02-13T01:48:32.459Z,92.91
2023-02-13T01:49:31.263Z,93.43
2023-02-13T01:50:31.253Z,93.74
2023-02-13T01:51:31.247Z,93.85
2023-02-13T01:52:31.232Z,93.95
2023-02-13T01:53:31.224Z,93.85
2023-02-13T01:54:31.523Z,93.43
2023-02-13T01:55:31.233Z,93.23
2023-02-13T01:56:31.191Z,93.12
2023-02-13T01:57:31.185Z,93.01
2023-02-13T01:58:31.163Z,92.80
2023-02-13T01:59:31.170Z,92.60
2023-02-13T02:00:31.153Z,92.60
2023-02-13T02:01:31.188Z,92.60
2023-02-13T02:02:31.167Z,92.60
2023-02-13T02:03:31.121Z,92.60
2023-02-13T02:04:31.114Z,92.74
2023-02-13T02:05:31.102Z,92.95
2023-02-13T02:06:31.086Z,92.95
2023-02-13T02:07:31.102Z,92.95
2023-02-13T02:08:31.079Z,92.85
2023-02-13T02:09:31.066Z,92.85
2023-02-13T02:10:31.043Z,92.85
2023-02-13T02:11:31.042Z,92.64
2023-02-13T02:12:31.024Z,92.54
2023-02-13T02:13:31.016Z,92.54
2023-02-13T02:14:31.005Z,92.74
2023-02-13T02:15:30.996Z,92.95
2023-02-13T02:16:31.006Z,93.05
2023-02-13T02:17:31.022Z,93.16
2023-02-13T02:18:30.970Z,93.05
2023-02-13T02:19:30.970Z,92.95
2023-02-13T02:20:30.970Z,92.95
2023-02-13T02:21:30.940Z,92.85
2023-02-13T02:22:30.932Z,92.64
2023-02-13T02:23:30.935Z,92.64
2023-02-13T02:24:30.910Z,92.68
2023-02-13T02:25:30.897Z,92.58
2023-02-13T02:26:30.890Z,92.43
2023-02-13T02:27:30.883Z,92.47
2023-02-13T02:28:30.927Z,92.37
2023-02-13T02:29:30.870Z,92.27
2023-02-13T02:30:30.869Z,92.47
2023-02-13T02:31:30.908Z,92.79
2023-02-13T02:32:30.833Z,92.99
2023-02-13T02:33:30.840Z,93.10
2023-02-13T02:34:30.816Z,93.10
2023-02-13T02:35:30.802Z,92.89
2023-02-13T02:36:30.811Z,93.10
2023-02-13T02:37:30.781Z,93.31
2023-02-13T02:38:30.773Z,93.31
2023-02-13T02:39:30.753Z,93.41
2023-02-13T02:40:30.755Z,93.52
2023-02-13T02:41:30.760Z,93.73
2023-02-13T02:42:30.724Z,93.83
2023-02-13T02:43:30.714Z,94.24
2023-02-13T02:44:30.728Z,94.45
2023-02-13T02:45:30.695Z,94.56
2023-02-13T02:46:30.717Z,94.76
2023-02-13T02:47:30.686Z,94.87
2023-02-13T02:48:30.673Z,94.98
2023-02-13T02:49:30.650Z,95.12
2023-02-13T02:50:30.659Z,95.39
2023-02-13T02:51:30.628Z,95.50
2023-02-13T02:52:30.619Z,95.70
2023-02-13T02:53:30.637Z,95.50
2023-02-13T02:54:30.632Z,95.18
2023-02-13T02:55:30.590Z,94.98
2023-02-13T02:56:30.723Z,94.66
2023-02-13T02:57:30.572Z,94.35
2023-02-13T02:58:30.613Z,94.14
2023-02-13T02:59:30.537Z,93.83
2023-02-13T03:00:30.555Z,93.62
2023-02-13T03:01:30.530Z,93.77
2023-02-13T03:02:30.523Z,93.93
2023-02-13T03:03:30.516Z,94.24
2023-02-13T03:04:30.641Z,94.45
2023-02-13T03:05:30.480Z,94.66
2023-02-13T03:06:30.483Z,94.87
2023-02-13T03:07:30.500Z,94.87
2023-02-13T03:08:30.449Z,94.70
2023-02-13T03:09:30.454Z,94.81
2023-02-13T03:10:30.444Z,94.76
2023-02-13T03:11:30.417Z,94.87
2023-02-13T03:12:30.422Z,94.87
2023-02-13T03:13:30.407Z,94.92
2023-02-13T03:14:30.397Z,94.81
2023-02-13T03:15:30.378Z,94.70
2023-02-13T03:16:30.406Z,94.60
2023-02-13T03:17:30.357Z,94.70
2023-02-13T03:18:30.365Z,94.92
2023-02-13T03:19:30.336Z,95.23
2023-02-13T03:20:30.327Z,95.23
2023-02-13T03:21:30.317Z,95.23
2023-02-13T03:22:30.307Z,95.12
2023-02-13T03:23:30.308Z,95.02
2023-02-13T03:24:30.287Z,94.92
2023-02-13T03:25:30.403Z,94.92
2023-02-13T03:26:30.267Z,94.81
2023-02-13T03:27:30.248Z,94.92
2023-02-13T03:28:30.312Z,95.23
2023-02-13T03:29:30.228Z,95.43
2023-02-13T03:30:30.245Z,95.43
2023-02-13T03:31:30.240Z,95.43
2023-02-13T03:32:30.208Z,95.23
2023-02-13T03:33:30.208Z,95.02
2023-02-13T03:34:30.187Z,94.81
2023-02-13T03:35:30.168Z,94.60
2023-02-13T03:36:30.167Z,94.39
2023-02-13T03:37:30.146Z,94.29
2023-02-13T03:38:30.167Z,93.98
2023-02-13T03:39:30.146Z,93.77
2023-02-13T03:40:30.131Z,93.56
2023-02-13T03:41:30.108Z,93.35
2023-02-13T03:42:30.208Z,93.35
2023-02-13T03:43:30.088Z,93.50
2023-02-13T03:44:30.104Z,93.81
2023-02-13T03:45:30.071Z,94.12
2023-02-13T03:46:30.059Z,94.12
2023-02-13T03:47:30.050Z,94.33
2023-02-13T03:48:30.060Z,94.43
2023-02-13T03:49:30.038Z,94.54
2023-02-13T03:50:30.042Z,94.43
2023-02-13T03:51:29.998Z,94.33
2023-02-13T03:52:29.998Z,93.81
2023-02-13T03:53:29.990Z,93.50
2023-02-13T03:54:29.988Z,93.18
2023-02-13T03:55:29.969Z,92.97
2023-02-13T03:56:29.959Z,92.87
2023-02-13T03:57:29.946Z,92.87
2023-02-13T03:58:29.954Z,92.77
2023-02-13T03:59:29.948Z,92.56
2023-02-13T04:00:29.919Z,92.56
2023-02-13T04:01:29.937Z,92.46
2023-02-13T04:02:29.955Z,92.46
2023-02-13T04:03:29.886Z,92.46
2023-02-13T04:04:29.877Z,92.46
2023-02-13T04:05:29.889Z,92.56
2023-02-13T04:06:29.857Z,92.46
2023-02-13T04:07:29.851Z,92.56
2023-02-13T04:08:29.831Z,92.56
2023-02-13T04:09:29.821Z,92.66
2023-02-13T04:10:29.829Z,92.77
2023-02-13T04:11:29.797Z,92.97
2023-02-13T04:12:29.790Z,93.08
2023-02-13T04:13:29.787Z,93.29
2023-02-13T04:14:29.769Z,93.29
2023-02-13T04:15:29.761Z,93.40
2023-02-13T04:16:29.821Z,93.40
2023-02-13T04:17:29.735Z,93.54
2023-02-13T04:18:29.754Z,93.54
2023-02-13T04:19:29.718Z,93.40
2023-02-13T04:20:29.711Z,93.33
2023-02-13T04:21:29.688Z,93.23
2023-02-13T04:22:29.689Z,93.08
2023-02-13T04:23:29.678Z,92.87
2023-02-13T04:24:29.667Z,92.66
2023-02-13T04:25:29.646Z,92.50
2023-02-13T04:26:29.640Z,92.50
2023-02-13T04:27:29.644Z,92.40
2023-02-13T04:28:29.742Z,92.29
2023-02-13T04:29:29.659Z,92.29
2023-02-13T04:30:29.644Z,92.18
2023-02-13T04:31:29.667Z,92.29
2023-02-13T04:32:29.620Z,92.29
2023-02-13T04:33:29.570Z,92.18
2023-02-13T04:34:29.570Z,92.29
2023-02-13T04:35:29.551Z,92.40
2023-02-13T04:36:29.541Z,92.50
2023-02-13T04:37:29.559Z,92.40
2023-02-13T04:38:29.521Z,92.50
2023-02-13T04:39:30.113Z,92.81
2023-02-13T04:40:29.509Z,92.91
2023-02-13T04:41:29.501Z,93.02
2023-02-13T04:42:29.483Z,92.91
2023-02-13T04:43:29.460Z,92.71
2023-02-13T04:44:29.464Z,92.50
2023-02-13T04:45:29.443Z,92.50
2023-02-13T04:46:29.455Z,92.40
2023-02-13T04:47:29.432Z,92.40
2023-02-13T04:48:29.427Z,92.29
2023-02-13T04:49:29.411Z,92.29
2023-02-13T04:50:29.399Z,92.40
2023-02-13T04:51:29.823Z,92.40
2023-02-13T04:52:30.576Z,92.50
2023-02-13T04:53:29.846Z,92.60
2023-02-13T04:54:29.364Z,92.71
2023-02-13T04:55:29.350Z,92.91
2023-02-13T04:56:29.332Z,93.02
2023-02-13T04:57:29.332Z,93.02
2023-02-13T04:58:29.312Z,93.12
2023-02-13T04:59:29.490Z,93.12
2023-02-13T05:00:29.305Z,93.23
2023-02-13T05:01:29.333Z,93.33
2023-02-13T05:02:29.285Z,93.33
2023-02-13T05:03:29.281Z,93.37
2023-02-13T05:04:29.291Z,93.37
2023-02-13T05:05:29.244Z,93.59
2023-02-13T05:06:29.309Z,93.69
2023-02-13T05:07:29.319Z,93.79
2023-02-13T05:08:29.436Z,93.79
2023-02-13T05:09:29.220Z,93.59
2023-02-13T05:10:29.204Z,93.48
2023-02-13T05:11:29.183Z,93.27
2023-02-13T05:12:29.193Z,93.06
2023-02-13T05:13:29.176Z,93.16
2023-02-13T05:14:29.146Z,93.16
2023-02-13T05:15:29.220Z,92.91
2023-02-13T05:16:29.132Z,92.85
2023-02-13T05:17:29.115Z,92.85
2023-02-13T05:18:29.162Z,92.75
2023-02-13T05:19:29.092Z,92.75
2023-02-13T05:20:29.087Z,92.96
2023-02-13T05:21:29.074Z,93.06
2023-02-13T05:22:29.092Z,93.06
2023-02-13T05:23:29.061Z,92.96
2023-02-13T05:24:29.043Z,92.96
2023-02-13T05:25:29.041Z,92.96
2023-02-13T05:26:29.023Z,92.96
2023-02-13T05:27:29.016Z,92.96
2023-02-13T05:28:29.050Z,92.96
2023-02-13T05:29:28.995Z,92.75
2023-02-13T05:30:29.002Z,92.54
2023-02-13T05:31:29.100Z,92.54
2023-02-13T05:32:29.253Z,92.54
2023-02-13T05:33:28.953Z,92.65
2023-02-13T05:34:28.940Z,92.65
2023-02-13T05:35:28.933Z,92.65
2023-02-13T05:36:28.946Z,92.65
2023-02-13T05:37:29.095Z,92.96
2023-02-13T05:38:28.905Z,93.16
2023-02-13T05:39:28.895Z,93.48
2023-02-13T05:40:28.884Z,93.69
2023-02-13T05:41:28.871Z,93.90
2023-02-13T05:42:28.879Z,93.90
2023-02-13T05:43:29.005Z,93.90
2023-02-13T05:44:28.837Z,93.90
2023-02-13T05:45:28.834Z,93.79
2023-02-13T05:46:28.873Z,93.59
2023-02-13T05:47:28.837Z,93.37
2023-02-13T05:48:29.549Z,93.27
2023-02-13T05:49:29.773Z,93.27
2023-02-13T05:50:29.488Z,93.16
2023-02-13T05:51:28.769Z,93.06
2023-02-13T05:52:28.761Z,92.96
2023-02-13T05:53:28.747Z,93.10
2023-02-13T05:54:28.738Z,93.10
2023-02-13T05:55:28.729Z,93.10
2023-02-13T05:56:28.718Z,93.10
2023-02-13T05:57:28.714Z,93.31
2023-02-13T05:58:28.704Z,93.41
2023-02-13T05:59:28.695Z,93.52
2023-02-13T06:00:28.667Z,93.41
2023-02-13T06:01:28.663Z,93.31
2023-02-13T06:02:28.671Z,93.31
2023-02-13T06:03:28.675Z,93.31
2023-02-13T06:04:28.647Z,93.21
2023-02-13T06:05:28.616Z,93.21
2023-02-13T06:06:28.641Z,93.10
2023-02-13T06:07:28.592Z,93.21
2023-02-13T06:08:28.582Z,93.41
2023-02-13T06:09:28.581Z,93.41
2023-02-13T06:10:28.561Z,93.41
2023-02-13T06:11:28.560Z,93.41
2023-02-13T06:12:28.554Z,93.31
2023-02-13T06:13:28.549Z,93.21
2023-02-13T06:14:28.522Z,92.90
2023-02-13T06:15:28.512Z,92.69
2023-02-13T06:16:28.590Z,92.58
2023-02-13T06:17:28.512Z,92.69
2023-02-13T06:18:28.482Z,92.79
2023-02-13T06:19:28.474Z,92.73
2023-02-13T06:20:28.462Z,92.83
2023-02-13T06:21:28.465Z,92.90
2023-02-13T06:22:28.435Z,93.00
2023-02-13T06:23:28.443Z,93.00
2023-02-13T06:24:28.431Z,93.00
2023-02-13T06:25:28.411Z,93.00
2023-02-13T06:26:28.404Z,92.94
2023-02-13T06:27:28.382Z,92.94
2023-02-13T06:28:28.385Z,92.94
2023-02-13T06:29:28.404Z,92.94
2023-02-13T06:30:28.377Z,93.04
2023-02-13T06:31:28.472Z,93.04
2023-02-13T06:32:28.333Z,93.04
2023-02-13T06:33:28.332Z,92.94
2023-02-13T06:34:28.319Z,92.94
2023-02-13T06:35:28.323Z,93.04
2023-02-13T06:36:28.292Z,93.04
2023-02-13T06:37:28.293Z,92.94
2023-02-13T06:38:28.276Z,92.94
2023-02-13T06:39:28.276Z,92.83
2023-02-13T06:40:28.266Z,92.94
2023-02-13T06:41:28.243Z,93.04
2023-02-13T06:42:28.246Z,93.04
2023-02-13T06:43:28.229Z,93.04
2023-02-13T06:44:28.218Z,93.15
2023-02-13T06:45:28.213Z,93.25
2023-02-13T06:46:28.222Z,93.35
2023-02-13T06:47:28.192Z,93.35
2023-02-13T06:48:28.180Z,93.46
2023-02-13T06:49:28.165Z,93.57
2023-02-13T06:50:28.167Z,93.57
2023-02-13T06:51:28.144Z,93.46
2023-02-13T06:52:28.132Z,93.46
2023-02-13T06:53:28.126Z,93.57
2023-02-13T06:54:44.781Z,93.46
2023-02-13T06:55:29.148Z,93.57
2023-02-13T06:56:28.090Z,93.77
2023-02-13T06:57:28.084Z,93.98
2023-02-13T06:58:28.103Z,94.19
2023-02-13T06:59:28.064Z,94.29
2023-02-13T07:00:28.056Z,94.29
2023-02-13T07:01:28.067Z,94.40
2023-02-13T07:02:28.042Z,94.40
2023-02-13T07:03:28.036Z,94.29
2023-02-13T07:04:28.004Z,94.29
2023-02-13T07:05:27.997Z,94.19
2023-02-13T07:06:28.014Z,94.15
2023-02-13T07:07:27.985Z,94.15
2023-02-13T07:08:27.964Z,94.19
2023-02-13T07:09:27.964Z,94.25
2023-02-13T07:10:27.944Z,94.25
2023-02-13T07:11:27.957Z,94.35
2023-02-13T07:12:27.917Z,94.46
2023-02-13T07:13:27.964Z,94.57
2023-02-13T07:14:27.905Z,94.35
2023-02-13T07:15:27.895Z,94.35
2023-02-13T07:16:27.943Z,94.35
2023-02-13T07:17:27.873Z,94.46
2023-02-13T07:18:27.874Z,94.46
2023-02-13T07:19:27.865Z,94.57
2023-02-13T07:20:27.843Z,94.46
2023-02-13T07:21:27.838Z,94.46
2023-02-13T07:22:27.835Z,94.35
2023-02-13T07:23:27.847Z,94.46
2023-02-13T07:24:27.806Z,94.46
2023-02-13T07:25:27.802Z,94.35
2023-02-13T07:26:27.774Z,94.35
2023-02-13T07:27:27.772Z,94.25
2023-02-13T07:28:27.812Z,94.25
2023-02-13T07:29:27.786Z,94.25
2023-02-13T07:30:27.838Z,94.15
2023-02-13T07:31:27.841Z,94.25
2023-02-13T07:32:27.717Z,94.35
2023-02-13T07:33:27.723Z,94.46
2023-02-13T07:34:27.720Z,94.57
2023-02-13T07:35:27.697Z,94.46
2023-02-13T07:36:27.687Z,94.57
2023-02-13T07:37:27.675Z,94.46
2023-02-13T07:38:27.698Z,94.42
2023-02-13T07:39:27.669Z,94.42
2023-02-13T07:40:27.637Z,94.52
2023-02-13T07:41:27.655Z,94.52
2023-02-13T07:42:27.629Z,94.63
2023-02-13T07:43:27.613Z,94.63
2023-02-13T07:44:27.623Z,94.73
2023-02-13T07:45:27.592Z,94.84
2023-02-13T07:46:27.702Z,94.94
2023-02-13T07:47:27.571Z,95.04
2023-02-13T07:48:27.561Z,95.04
2023-02-13T07:49:27.550Z,95.25
2023-02-13T07:50:27.543Z,95.36
2023-02-13T07:51:27.533Z,95.36
2023-02-13T07:52:27.532Z,95.36
2023-02-13T07:53:27.504Z,95.56
2023-02-13T07:54:27.511Z,95.67
2023-02-13T07:55:27.491Z,95.78
2023-02-13T07:56:27.489Z,95.88
2023-02-13T07:57:27.487Z,96.15
2023-02-13T07:58:27.451Z,96.46
2023-02-13T07:59:27.463Z,96.77
2023-02-13T08:00:27.438Z,96.98
2023-02-13T08:01:27.443Z,96.98
2023-02-13T08:02:27.420Z,97.09
2023-02-13T08:03:27.459Z,97.19
2023-02-13T08:04:27.400Z,97.30
2023-02-13T08:05:27.383Z,97.56
2023-02-13T08:06:27.393Z,97.67
2023-02-13T08:07:27.377Z,97.88
2023-02-13T08:08:27.344Z,97.98
2023-02-13T08:09:27.366Z,98.08
2023-02-13T08:10:27.388Z,98.19
2023-02-13T08:11:27.321Z,98.39
2023-02-13T08:12:27.310Z,98.46
2023-02-13T08:13:27.301Z,98.56
2023-02-13T08:14:27.290Z,98.66
2023-02-13T08:15:27.304Z,98.66
2023-02-13T08:16:27.373Z,98.66
2023-02-13T08:17:27.292Z,98.77
2023-02-13T08:18:27.259Z,98.77
2023-02-13T08:19:27.243Z,98.77
2023-02-13T08:20:27.377Z,98.72
2023-02-13T08:21:27.218Z,98.72
2023-02-13T08:22:27.222Z,98.72
2023-02-13T08:23:27.268Z,98.72
2023-02-13T08:24:27.207Z,98.62
2023-02-13T08:25:27.176Z,98.52
2023-02-13T08:26:27.157Z,98.41
2023-02-13T08:27:27.147Z,98.41
2023-02-13T08:28:27.172Z,98.41
2023-02-13T08:29:27.151Z,98.36
2023-02-13T08:30:27.209Z,98.47
2023-02-13T08:31:27.215Z,98.47
2023-02-13T08:32:27.098Z,98.47
2023-02-13T08:33:27.088Z,98.36
2023-02-13T08:34:27.087Z,98.26
2023-02-13T08:35:27.076Z,98.26
2023-02-13T08:36:27.055Z,98.26
2023-02-13T08:37:27.044Z,98.43
2023-02-13T08:38:27.052Z,98.43
2023-02-13T08:39:27.026Z,98.43
2023-02-13T08:40:27.187Z,98.43
2023-02-13T08:41:27.010Z,98.43
2023-02-13T08:42:26.987Z,98.53
2023-02-13T08:43:26.991Z,98.43
2023-02-13T08:44:26.972Z,98.27
2023-02-13T08:45:26.974Z,98.27
2023-02-13T08:46:27.050Z,98.17
2023-02-13T08:47:26.948Z,98.07
2023-02-13T08:48:26.946Z,98.07
2023-02-13T08:49:26.924Z,97.96
2023-02-13T08:50:26.917Z,97.96
2023-02-13T08:51:26.917Z,97.86
2023-02-13T08:52:26.889Z,97.75
2023-02-13T08:53:26.899Z,97.75
2023-02-13T08:54:26.878Z,97.71
2023-02-13T08:55:26.861Z,97.81
2023-02-13T08:56:26.858Z,97.71
2023-02-13T08:57:26.840Z,97.50
2023-02-13T08:58:26.829Z,97.40
2023-02-13T08:59:26.825Z,97.40
2023-02-13T09:00:26.819Z,97.30
2023-02-13T09:01:26.903Z,97.25
2023-02-13T09:02:26.833Z,97.14
2023-02-13T09:03:26.778Z,97.14
2023-02-13T09:04:26.766Z,97.14
2023-02-13T09:05:26.758Z,97.04
2023-02-13T09:06:26.740Z,96.94
2023-02-13T09:07:26.870Z,96.94
2023-02-13T09:08:26.732Z,96.94
2023-02-13T09:09:26.718Z,96.83
2023-02-13T09:10:26.708Z,96.69
2023-02-13T09:11:26.727Z,96.69
2023-02-13T09:12:26.702Z,96.58
2023-02-13T09:13:26.674Z,96.58
2023-02-13T09:14:26.669Z,96.48
2023-02-13T09:15:26.643Z,96.37
2023-02-13T09:16:26.664Z,96.48
2023-02-13T09:17:26.631Z,96.58
2023-02-13T09:18:26.621Z,96.58
2023-02-13T09:19:26.632Z,96.48
2023-02-13T09:20:26.602Z,96.44
2023-02-13T09:21:26.591Z,96.44
2023-02-13T09:22:26.583Z,96.54
2023-02-13T09:23:26.585Z,96.54
2023-02-13T09:24:26.582Z,96.54
2023-02-13T09:25:26.544Z,96.44
2023-02-13T09:26:26.544Z,96.33
2023-02-13T09:27:26.534Z,96.33
2023-02-13T09:28:26.577Z,96.19
2023-02-13T09:29:26.512Z,96.08
2023-02-13T09:30:26.511Z,96.08
2023-02-13T09:31:29.198Z,95.98
2023-02-13T09:32:26.493Z,95.98
2023-02-13T09:33:26.465Z,95.98
2023-02-13T09:34:26.457Z,96.08
2023-02-13T09:35:26.445Z,95.98
2023-02-13T09:36:26.476Z,95.93
2023-02-13T09:37:26.426Z,96.03
2023-02-13T09:38:26.425Z,96.14
2023-02-13T09:39:26.404Z,96.03
2023-02-13T09:40:26.428Z,95.72
2023-02-13T09:41:26.389Z,95.51
2023-02-13T09:42:26.377Z,95.26
2023-02-13T09:43:26.368Z,94.95
2023-02-13T09:44:26.357Z,94.74
2023-02-13T09:45:26.342Z,94.74
2023-02-13T09:46:26.376Z,94.60
2023-02-13T09:47:26.340Z,94.29
2023-02-13T09:48:26.320Z,93.98
2023-02-13T09:49:26.298Z,93.87
2023-02-13T09:50:26.318Z,93.77
2023-02-13T09:51:26.285Z,93.56
2023-02-13T09:52:26.275Z,93.35
2023-02-13T09:53:26.256Z,92.90
2023-02-13T09:54:26.269Z,92.80
2023-02-13T09:55:26.237Z,92.90
2023-02-13T09:56:26.248Z,92.80
2023-02-13T09:57:26.218Z,92.59
2023-02-13T09:58:26.226Z,92.28
2023-02-13T09:59:26.186Z,92.13
2023-02-13T10:00:26.192Z,92.03
2023-02-13T10:01:26.208Z,91.72
2023-02-13T10:02:26.166Z,91.72
2023-02-13T10:03:26.156Z,91.72
2023-02-13T10:04:26.146Z,91.72
2023-02-13T10:05:26.174Z,91.41
2023-02-13T10:06:26.121Z,91.30
2023-02-13T10:07:26.106Z,91.30
2023-02-13T10:08:26.119Z,91.16
2023-02-13T10:09:26.084Z,90.95
2023-02-13T10:10:26.078Z,90.95
2023-02-13T10:11:26.103Z,91.05
2023-02-13T10:12:26.089Z,90.44
2023-02-13T10:13:26.036Z,90.12
2023-02-13T10:14:26.045Z,89.87
2023-02-13T10:15:26.087Z,89.46
2023-02-13T10:16:26.049Z,89.25
2023-02-13T10:17:25.998Z,89.46
2023-02-13T10:18:25.999Z,89.25
2023-02-13T10:19:26.000Z,89.01
2023-02-13T10:20:25.968Z,89.01
2023-02-13T10:21:25.965Z,89.01
2023-02-13T10:22:25.974Z,88.80
2023-02-13T10:23:25.952Z,88.59
2023-02-13T10:24:25.928Z,88.39
2023-02-13T10:25:25.920Z,88.49
2023-02-13T10:26:25.909Z,88.49
2023-02-13T10:27:25.900Z,88.65
2023-02-13T10:28:25.923Z,88.96
2023-02-13T10:29:25.881Z,88.14
2023-02-13T10:30:25.867Z,87.83
2023-02-13T10:31:26.074Z,88.31
2023-02-13T10:32:25.910Z,88.41
2023-02-13T10:33:25.852Z,87.89
2023-02-13T10:34:25.820Z,87.07
2023-02-13T10:35:25.807Z,86.86
2023-02-13T10:36:25.820Z,86.30
2023-02-13T10:37:25.787Z,85.78
2023-02-13T10:38:25.799Z,85.78
2023-02-13T10:39:25.771Z,85.58
2023-02-13T10:40:25.769Z,85.78
2023-02-13T10:41:25.753Z,85.37
2023-02-13T10:42:25.746Z,85.23
2023-02-13T10:43:25.728Z,84.72
2023-02-13T10:44:25.724Z,84.61
2023-02-13T10:45:25.710Z,84.72
2023-02-13T10:46:25.750Z,84.72
2023-02-13T10:47:25.680Z,84.51
2023-02-13T10:48:26.901Z,84.47
2023-02-13T10:49:25.659Z,83.64
2023-02-13T10:50:25.654Z,83.54
2023-02-13T10:51:25.663Z,84.06
2023-02-13T10:52:25.661Z,84.27
2023-02-13T10:53:25.619Z,83.91
2023-02-13T10:54:25.610Z,83.29
2023-02-13T10:55:25.609Z,83.19
2023-02-13T10:56:25.595Z,82.57
2023-02-13T10:57:25.586Z,82.47
2023-02-13T10:58:25.591Z,82.54
2023-02-13T10:59:25.549Z,82.43
2023-02-13T11:00:25.553Z,82.12
2023-02-13T11:01:25.579Z,81.51
2023-02-13T11:02:25.528Z,81.20
2023-02-13T11:03:25.522Z,81.61
2023-02-13T11:04:25.577Z,81.16
2023-02-13T11:05:25.487Z,81.26
2023-02-13T11:06:25.479Z,81.16
2023-02-13T11:07:25.469Z,80.75
2023-02-13T11:08:25.456Z,80.75
2023-02-13T11:09:25.513Z,80.95
2023-02-13T11:10:25.446Z,80.91
2023-02-13T11:11:25.449Z,80.81
2023-02-13T11:12:25.422Z,80.81
2023-02-13T11:13:25.414Z,79.79
2023-02-13T11:14:25.399Z,79.68
2023-02-13T11:15:25.389Z,80.09
2023-02-13T11:16:25.432Z,79.68
2023-02-13T11:17:25.382Z,79.33
2023-02-13T11:18:25.346Z,79.44
2023-02-13T11:19:25.336Z,78.61
2023-02-13T11:20:25.354Z,78.41
2023-02-13T11:21:25.307Z,78.61
2023-02-13T11:22:25.306Z,78.58
2023-02-13T11:23:25.287Z,78.17
2023-02-13T11:24:25.293Z,78.17
2023-02-13T11:25:25.288Z,78.68
2023-02-13T11:26:25.265Z,78.06
2023-02-13T11:27:25.268Z,77.45
2023-02-13T11:28:25.328Z,77.51
2023-02-13T11:29:25.257Z,77.51
2023-02-13T11:30:25.221Z,77.51
2023-02-13T11:31:25.512Z,77.82
2023-02-13T11:32:25.291Z,77.10
2023-02-13T11:33:25.189Z,77.10
2023-02-13T11:34:25.175Z,77.17
2023-02-13T11:35:25.176Z,76.25
2023-02-13T11:36:25.186Z,76.25
2023-02-13T11:37:25.147Z,75.83
2023-02-13T11:38:25.137Z,75.32
2023-02-13T11:39:25.139Z,74.98
2023-02-13T11:40:25.117Z,74.87
2023-02-13T11:41:25.129Z,74.98
2023-02-13T11:42:25.096Z,75.18
2023-02-13T11:43:25.112Z,75.29
2023-02-13T11:44:25.113Z,75.29
2023-02-13T11:45:25.054Z,74.15
2023-02-13T11:46:25.095Z,74.12
2023-02-13T11:47:25.052Z,74.12
2023-02-13T11:48:25.037Z,73.50
2023-02-13T11:49:25.028Z,74.02
2023-02-13T11:50:25.030Z,73.57
2023-02-13T11:51:24.998Z,73.47
2023-02-13T11:52:24.989Z,73.47
2023-02-13T11:53:24.980Z,73.68
2023-02-13T11:54:24.994Z,72.82
2023-02-13T11:55:24.961Z,72.51
2023-02-13T11:56:24.952Z,72.51
2023-02-13T11:57:24.932Z,72.31
2023-02-13T11:58:24.999Z,71.97
2023-02-13T11:59:24.913Z,71.66
2023-02-13T12:00:26.829Z,71.56
2023-02-13T12:01:24.908Z,71.97
2023-02-13T12:02:24.953Z,71.83
2023-02-13T12:03:25.016Z,71.01
2023-02-13T12:04:24.884Z,71.18
2023-02-13T12:05:24.877Z,70.87
2023-02-13T12:06:24.846Z,69.95
2023-02-13T12:07:24.843Z,69.10
2023-02-13T12:08:24.830Z,68.87
2023-02-13T12:09:24.827Z,68.60
2023-02-13T12:10:24.807Z,66.74
2023-02-13T12:11:24.787Z,64.87
2023-02-13T12:12:24.787Z,61.30
2023-02-13T12:13:24.772Z,58.98
2023-02-13T12:14:24.780Z,57.45
2023-02-13T12:15:24.761Z,55.24
2023-02-13T12:16:24.774Z,54.08
2023-02-13T12:17:31.734Z,53.55
2023-02-13T12:18:25.724Z,51.89
2023-02-13T12:19:24.707Z,50.52
2023-02-13T12:20:24.703Z,49.07
2023-02-13T12:21:24.680Z,48.19
2023-02-13T12:22:24.680Z,47.02
2023-02-13T12:23:24.658Z,45.65
2023-02-13T12:24:24.670Z,44.60
2023-02-13T12:25:24.643Z,43.66
2023-02-13T12:26:24.634Z,43.21
2023-02-13T12:27:24.623Z,42.52
2023-02-13T12:28:24.612Z,42.29
2023-02-13T12:29:24.628Z,41.77
2023-02-13T12:30:24.632Z,41.36
2023-02-13T12:31:24.619Z,41.03
2023-02-13T12:32:24.571Z,40.56
2023-02-13T12:33:24.561Z,40.94
2023-02-13T12:34:24.560Z,40.22
2023-02-13T12:35:24.551Z,39.72
2023-02-13T12:36:24.521Z,39.70
2023-02-13T12:37:24.513Z,39.68
2023-02-13T12:38:24.501Z,39.38
2023-02-13T12:39:24.491Z,39.18
2023-02-13T12:40:24.495Z,39.62
2023-02-13T12:41:24.475Z,40.22
2023-02-13T12:42:24.464Z,39.70
2023-02-13T12:43:24.442Z,40.10
2023-02-13T12:44:24.442Z,39.28
2023-02-13T12:45:24.436Z,39.10
2023-02-13T12:46:24.422Z,39.04
2023-02-13T12:47:24.416Z,39.95
2023-02-13T12:48:24.393Z,39.76
2023-02-13T12:49:24.382Z,39.95
2023-02-13T12:50:24.374Z,40.23
2023-02-13T12:51:24.365Z,40.04
2023-02-13T12:52:24.364Z,39.43